• Join FlightAware (Why Join?)
  • Login
  • US Flag 
01:35PM EDT


 

Airport Tracker/Info


-or-


 

Live Flight TrackerFlight Track Log ✈ EJA396 ✈ 13-Jun-2013 ✈ KBLM - TXKF / BDA

Flight Track Log - Related Links

Times and Time Zones

All times are in EDT time to prevent confusion due to time zone crossing. See the EJA396 flight status page for this flight to view local times or setup timezone preferences in your user account.

Time Position Orientation Groundspeed Altitude Reporting Facility
EDT Latitude Longitude Course Direction KTS MPH feet Rate Location/Type
08:59AM 40.1139 -74.1228 100° East 168 193 4,300  Level New York Center
09:00AM 40.0889 -74.0458 113° Southeast 200 230 5,800 1,440 Climbing New York Center
09:01AM 40.0539 -73.9544 117° Southeast 248 285 7,300 1,200 Climbing New York Center
09:02AM 40.0153 -73.8444 115° Southeast 296 341 8,300 960 Climbing New York Center
09:03AM 39.9781 -73.7533 118° Southeast 310 357 9,300 1,080 Climbing New York Center
09:04AM 39.6417 -73.3657 100° East  Level Estimated
09:04AM 39.9392 -73.6433 115° Southeast 315 362 10,500  Level New York Center
09:05AM 39.8939 -73.5250 116° Southeast 340 391 12,400 1,980 Climbing New York Center
09:06AM 39.8386 -73.4014 120° Southeast 351 404 14,500 1,620 Climbing New York Center
09:07AM 39.7681 -73.2933 130° Southeast 366 421 15,800 1,680 Climbing New York Center
09:08AM 39.6953 -73.1772 129° Southeast 396 456 17,900 2,280 Climbing New York Center
09:09AM 39.6206 -73.0561 129° Southeast 419 482 20,400 2,220 Climbing New York Center
09:10AM 39.5436 -72.9406 131° Southeast 425 489 22,400 1,980 Climbing New York Center
09:11AM 39.4625 -72.8117 129° Southeast 442 509 24,400 1,800 Climbing New York Center
09:12AM 39.3833 -72.6858 129° Southeast 442 509 26,000 1,560 Climbing New York Center
09:13AM 39.3000 -72.5600 131° Southeast 449 517 27,500 1,440 Climbing New York Center
09:14AM 39.2144 -72.4292 130° Southeast 460 529 29,000 1,440 Climbing New York Center
09:15AM 39.1308 -72.2961 129° Southeast 472 543 30,400 960 Climbing New York Center
09:16AM 39.0428 -72.1606 130° Southeast 478 550 31,000 240 Climbing New York Center
09:17AM 38.9547 -72.0200 129° Southeast 488 562 31,000  Level New York Center
09:18AM 38.8644 -71.8825 130° Southeast 494 568 31,000  Level New York Center
09:19AM 38.7761 -71.7506 131° Southeast 499 574 31,000  Level New York Center
09:20AM 38.6833 -71.6136 131° Southeast 504 580 31,000  Level New York Center
09:21AM 38.6008 -71.4850 129° Southeast 509 586 31,000  Level New York Center
09:22AM 38.5097 -71.3514 131° Southeast 503 579 31,000  Level New York Center
09:23AM 38.4186 -71.2100 129° Southeast 503 579 31,000  Level New York Center
09:24AM 38.3253 -71.0769 132° Southeast 503 579 31,000  Level New York Center
09:25AM 38.2317 -70.9497 133° Southeast 503 579 31,000  Level New York Center
09:26AM 38.1422 -70.8069 129° Southeast 509 586 31,000  Level New York Center
09:27AM 38.0464 -70.6881 136° Southeast 499 574 31,000  Level New York Center
09:28AM 37.9461 -70.5617 135° Southeast 493 567 31,000  Level New York Center
09:29AM 37.8231 -70.4831 153° Southeast 486 559 31,000  Level New York Center
09:30AM 37.6997 -70.4047 153° Southeast 491 565 31,000  Level New York Center
09:32AM 37.5535 -70.2891 155° Southeast  Level FlightAware Approximate
09:39AM 36.8051 -69.8406 154° Southeast  Level FlightAware Approximate
09:40AM 36.6983 -69.7765 154° Southeast  Level FlightAware Approximate
09:41AM 36.5916 -69.7125 154° Southeast  Level FlightAware Approximate
09:42AM 36.4847 -69.6487 154° Southeast  Level FlightAware Approximate
09:43AM 36.3779 -69.5851 154° Southeast  Level FlightAware Approximate
09:44AM 36.2710 -69.5216 154° Southeast  Level FlightAware Approximate
09:44AM 36.1667 -69.4500 143° Southeast 480 552 31,000  Level New York Oceanic (ODAPS)
09:45AM 36.1641 -69.4583 154° Southeast  Level FlightAware Approximate
09:46AM 36.0685 -69.3722 142° Southeast  Level FlightAware Approximate
09:47AM 35.9747 -69.2829 142° Southeast  Level FlightAware Approximate
09:48AM 35.8807 -69.1937 142° Southeast  Level FlightAware Approximate
09:49AM 35.7867 -69.1048 142° Southeast  Level FlightAware Approximate
09:50AM 35.3140 -68.6526 143° Southeast 480 552 31,000  Level FlightAware Transoceanic
09:51AM 35.2071 -68.5542 143° Southeast 480 552 31,000  Level FlightAware Transoceanic
09:52AM 35.1001 -68.4559 143° Southeast 480 552 31,000  Level FlightAware Transoceanic
09:53AM 34.9930 -68.3580 143° Southeast 480 552 31,000  Level FlightAware Transoceanic
09:54AM 34.8858 -68.2602 143° Southeast 480 552 31,000  Level FlightAware Transoceanic
09:55AM 34.7785 -68.1628 143° Southeast 480 552 31,000  Level FlightAware Transoceanic
09:56AM 34.6712 -68.0656 143° Southeast 480 552 31,000  Level FlightAware Transoceanic
09:57AM 34.5638 -67.9686 143° Southeast 480 552 31,000  Level FlightAware Transoceanic
09:58AM 34.4563 -67.8719 143° Southeast 480 552 31,000  Level FlightAware Transoceanic
09:59AM 34.3487 -67.7755 144° Southeast 480 552 31,000  Level FlightAware Transoceanic
10:00AM 34.2411 -67.6793 144° Southeast 480 552 31,000  Level FlightAware Transoceanic
10:01AM 34.1333 -67.5833 125° Southeast 480 552 31,000  Level FlightAware Transoceanic
10:02AM 34.0545 -67.4489 125° Southeast 480 552 31,000 -540 Level FlightAware Transoceanic
10:02AM 34.1333 -67.5833 360° North 297 342 30,000  Descending New York Oceanic (ODAPS)
10:03AM 33.9756 -67.3148 125° Southeast 480 552 31,000  Climbing FlightAware Transoceanic
10:03AM 34.1333 -67.5833 360° North 297 342 30,000  Descending New York Oceanic (ODAPS)
10:04AM 33.8964 -67.1809 125° Southeast 480 552 31,000  Climbing FlightAware Transoceanic
10:04AM 34.1333 -67.5833 125° Southeast 479 551 30,000  Descending New York Oceanic (ODAPS)
10:05AM 33.8172 -67.0473 126° Southeast 480 552 31,000 600 Climbing FlightAware Transoceanic
10:06AM 33.7378 -66.9139 126° Southeast 480 552 31,000  Level FlightAware Transoceanic
10:07AM 33.6582 -66.7807 126° Southeast 480 552 31,000  Level FlightAware Transoceanic
10:08AM 33.5786 -66.6478 126° Southeast 480 552 31,000 -540 Level FlightAware Transoceanic
10:09AM 33.5911 -66.6686 126° Southeast 297 342 30,000 -540 Descending FlightAware Transoceanic
10:10AM 33.5131 -66.5388 126° Southeast 297 342 30,000  Level FlightAware Transoceanic
10:11AM 33.4350 -66.4093 126° Southeast 479 551 30,000  Level FlightAware Transoceanic
10:11AM 34.1333 -67.5833 125° Southeast 436 502 30,000 -5,640 Level New York Oceanic (ODAPS)
10:11AM 34.1333 -67.5833 125° Southeast 436 502 26,000  Descending New York Oceanic (ODAPS)
10:12AM 33.3567 -66.2800 126° Southeast 479 551 30,000 3,060 Climbing FlightAware Transoceanic
10:13AM 33.2783 -66.1510 126° Southeast 479 551 30,000  Level FlightAware Transoceanic
10:14AM 33.1997 -66.0222 126° Southeast 479 551 30,000  Level FlightAware Transoceanic
10:15AM 33.1211 -65.8936 126° Southeast 479 551 30,000  Level FlightAware Transoceanic
10:16AM 33.0423 -65.7653 126° Southeast 479 551 30,000 -10,080 Level FlightAware Transoceanic
10:16AM 34.1333 -67.5833 125° Southeast 436 502 17,800 -4,020 Descending New York Oceanic (ODAPS)
10:17AM 33.0709 -65.8119 126° Southeast 436 502 26,000 4,560 Climbing FlightAware Transoceanic
10:18AM 32.9992 -65.6954 126° Southeast 436 502 26,000  Level FlightAware Transoceanic
10:19AM 32.9274 -65.5790 126° Southeast 436 502 26,000  Level FlightAware Transoceanic
10:20AM 32.8554 -65.4628 126° Southeast 436 502 26,000  Level FlightAware Transoceanic
10:21AM 32.7834 -65.3468 126° Southeast 436 502 26,000 -4,140 Level FlightAware Transoceanic
10:22AM 32.7113 -65.2310 127° Southeast 436 502 17,800 -4,140 Descending FlightAware Transoceanic
10:23AM 32.6390 -65.1154 127° Southeast 436 502 17,800  Level FlightAware Transoceanic
10:24AM 32.5667 -65.0000 106° East 436 502 17,800 -7,860 Level FlightAware Transoceanic
10:24AM 34.1333 -67.5833 125° Southeast 436 502 5,000 -13,980 Descending New York Oceanic (ODAPS)
10:24AM 32.5667 -65.0000 106° East 331 381 5,000 34,860 Level New York Oceanic (ODAPS)
10:25AM 32.5225 -64.8165 106° East 436 502 17,800 11,760 Climbing FlightAware Transoceanic
10:26AM 32.4780 -64.6331 106° East 436 502 17,800 -3,840 Level FlightAware Transoceanic
10:27AM 32.3814 -64.6718 125° Southeast  Level Estimated
10:28AM 32.3640 -64.6787 132° Southeast  Level Estimated
10:28AM 32.5667 -65.0000 106° East 331 381 3,000  Level New York Oceanic (ODAPS)
10:29AM 32.3640 -64.6787 90° East  Level Estimated
10:30AM 32.3640 -64.6787 90° East  Level Estimated
10:30AM 32.4333 -64.4500 187° South 232 267 3,000  Level New York Oceanic (ODAPS)
10:31AM 32.3640 -64.6787 90° East  Level Estimated
10:31AM 32.4333 -64.4500 187° South 232 267 2,900  Level New York Oceanic (ODAPS)
10:32AM 32.3640 -64.6787 90° East  Level Estimated
10:33AM 32.3640 -64.6787 90° East  Level Estimated
10:34AM 32.3640 -64.6787 90° East  Level Estimated
10:35AM 32.3640 -64.6787 90° East  Level Estimated
10:36AM 32.3640 -64.6787 90° East  Level Estimated
10:37AM 32.3640 -64.6787 250° West  Level Estimated
10:38AM 32.3640 -64.6787 308° West  Level Estimated
10:39AM 32.3640 -64.6787 308° West  Level Estimated
10:40AM 32.3640 -64.6787 308° West  Level Estimated
10:41AM 32.3640 -64.6787 308° West  Level Estimated